createdAt,value
2022-11-13T00:01:25.031Z,38.43
2022-11-13T00:03:52.115Z,35.53
2022-11-13T00:06:20.225Z,41.67
2022-11-13T00:08:48.059Z,30.20
2022-11-13T00:11:20.115Z,38.57
2022-11-13T00:13:49.137Z,23.53
2022-11-13T00:16:20.953Z,27.80
2022-11-13T00:18:48.436Z,33.17
2022-11-13T00:21:25.429Z,34.90
2022-11-13T00:23:53.813Z,36.33
2022-11-13T00:26:31.049Z,29.30
2022-11-13T00:29:01.808Z,30.50
2022-11-13T00:31:30.101Z,39.83
2022-11-13T00:34:19.507Z,34.90
2022-11-13T00:36:46.840Z,34.53
2022-11-13T00:39:13.936Z,21.93
2022-11-13T00:41:40.979Z,32.47
2022-11-13T00:44:08.274Z,33.10
2022-11-13T00:46:38.073Z,26.03
2022-11-13T00:49:05.338Z,24.67
2022-11-13T00:51:32.777Z,35.40
2022-11-13T00:53:59.752Z,31.07
2022-11-13T00:56:27.157Z,18.80
2022-11-13T00:58:54.129Z,23.67
2022-11-13T01:01:22.052Z,28.87
2022-11-13T01:03:49.276Z,26.80
2022-11-13T01:06:27.037Z,23.43
2022-11-13T01:08:59.877Z,35.67
2022-11-13T01:11:30.054Z,42.47
2022-11-13T01:13:57.991Z,29.07
2022-11-13T01:16:27.835Z,31.77
2022-11-13T01:18:56.067Z,19.43
2022-11-13T01:21:27.358Z,23.50
2022-11-13T01:23:56.399Z,25.17
2022-11-13T01:26:29.997Z,37.40
2022-11-13T01:28:59.390Z,34.50
2022-11-13T01:31:31.115Z,35.17
2022-11-13T01:33:58.906Z,34.77
2022-11-13T01:36:28.658Z,33.07
2022-11-13T01:38:56.194Z,26.20
2022-11-13T01:41:33.607Z,24.67
2022-11-13T01:44:01.493Z,32.33
2022-11-13T01:46:35.124Z,25.40
2022-11-13T01:49:15.931Z,27.23
2022-11-13T01:52:40.935Z,27.63
2022-11-13T01:55:16.078Z,28.33
2022-11-13T01:57:43.169Z,26.70
2022-11-13T02:00:12.623Z,27.37
2022-11-13T02:02:39.718Z,30.17
2022-11-13T02:05:09.146Z,25.77
2022-11-13T02:07:36.143Z,30.30
2022-11-13T02:10:03.313Z,27.37
2022-11-13T02:12:42.360Z,27.93
2022-11-13T02:15:10.825Z,26.27
2022-11-13T02:17:50.364Z,19.10
2022-11-13T02:20:29.559Z,24.60
2022-11-13T02:23:30.000Z,24.27
2022-11-13T02:25:57.614Z,25.00
2022-11-13T02:28:24.633Z,21.03
2022-11-13T02:30:51.708Z,24.37
2022-11-13T02:33:33.064Z,25.67
2022-11-13T02:36:00.510Z,25.90
2022-11-13T02:38:28.038Z,20.13
2022-11-13T02:40:55.377Z,22.57
2022-11-13T02:43:22.384Z,21.07
2022-11-13T02:45:49.407Z,16.00
2022-11-13T02:48:16.427Z,18.77
2022-11-13T02:50:43.809Z,21.17
2022-11-13T02:53:11.024Z,15.30
2022-11-13T02:55:38.261Z,18.23
2022-11-13T02:58:05.374Z,16.43
2022-11-13T03:00:32.603Z,18.00
2022-11-13T03:02:59.667Z,23.07
2022-11-13T03:05:26.690Z,19.13
2022-11-13T03:07:53.876Z,17.33
2022-11-13T03:10:20.863Z,19.33
2022-11-13T03:12:47.864Z,16.87
2022-11-13T03:15:14.956Z,18.43
2022-11-13T03:17:41.976Z,17.53
2022-11-13T03:20:09.539Z,20.27
2022-11-13T03:22:36.547Z,19.37
2022-11-13T03:25:09.908Z,17.23
2022-11-13T03:27:37.801Z,17.37
2022-11-13T03:30:06.189Z,23.63
2022-11-13T03:32:33.176Z,15.90
2022-11-13T03:35:00.145Z,17.87
2022-11-13T03:37:27.192Z,16.10
2022-11-13T03:39:54.146Z,14.00
2022-11-13T03:42:21.099Z,17.00
2022-11-13T03:44:48.157Z,14.60
2022-11-13T03:47:15.642Z,13.90
2022-11-13T03:49:42.625Z,14.47
2022-11-13T03:52:09.848Z,16.97
2022-11-13T03:54:36.797Z,14.53
2022-11-13T03:57:04.192Z,14.63
2022-11-13T03:59:31.177Z,18.30
2022-11-13T04:01:58.174Z,20.70
2022-11-13T04:04:25.186Z,15.87
2022-11-13T04:06:52.284Z,18.13
2022-11-13T04:09:19.360Z,18.23
2022-11-13T04:11:46.335Z,15.13
2022-11-13T04:14:13.424Z,16.00
2022-11-13T04:16:40.553Z,17.13
2022-11-13T04:19:07.563Z,12.83
2022-11-13T04:21:34.681Z,11.53
2022-11-13T04:24:01.699Z,15.47
2022-11-13T04:26:28.721Z,15.17
2022-11-13T04:28:55.733Z,12.87
2022-11-13T04:31:22.928Z,15.03
2022-11-13T04:33:49.929Z,16.50
2022-11-13T04:36:17.015Z,15.07
2022-11-13T04:38:44.002Z,15.50
2022-11-13T04:41:32.406Z,12.13
2022-11-13T04:43:59.487Z,15.00
2022-11-13T04:46:26.512Z,17.13
2022-11-13T04:48:53.483Z,14.47
2022-11-13T04:51:20.554Z,13.77
2022-11-13T04:53:47.640Z,11.53
2022-11-13T04:56:14.618Z,12.73
2022-11-13T04:58:41.565Z,15.43
2022-11-13T05:01:08.530Z,17.03
2022-11-13T05:03:35.723Z,12.33
2022-11-13T05:06:08.625Z,13.40
2022-11-13T05:08:36.331Z,16.17
2022-11-13T05:11:04.217Z,19.33
2022-11-13T05:13:36.427Z,17.57
2022-11-13T05:16:08.469Z,13.87
2022-11-13T05:18:37.339Z,12.60
2022-11-13T05:21:07.580Z,11.03
2022-11-13T05:23:35.409Z,16.00
2022-11-13T05:26:13.151Z,18.47
2022-11-13T05:28:40.512Z,17.00
2022-11-13T05:31:18.054Z,17.40
2022-11-13T05:33:49.648Z,15.67
2022-11-13T05:36:19.527Z,18.00
2022-11-13T05:38:46.911Z,13.30
2022-11-13T05:41:22.388Z,14.13
2022-11-13T05:43:53.738Z,17.90
2022-11-13T05:46:28.221Z,19.60
2022-11-13T05:48:59.386Z,17.50
2022-11-13T05:51:31.509Z,19.70
2022-11-13T05:53:59.577Z,14.40
2022-11-13T05:56:34.647Z,18.30
2022-11-13T05:59:03.565Z,16.87
2022-11-13T06:01:38.956Z,14.57
2022-11-13T06:04:07.993Z,13.73
2022-11-13T06:06:35.371Z,14.17
2022-11-13T06:09:06.127Z,18.73
2022-11-13T06:11:33.227Z,19.10
2022-11-13T06:14:00.887Z,16.00
2022-11-13T06:16:34.846Z,16.70
2022-11-13T06:19:05.787Z,15.80
2022-11-13T06:21:36.602Z,14.53
2022-11-13T06:24:04.021Z,17.57
2022-11-13T06:26:35.623Z,15.27
2022-11-13T06:29:07.214Z,13.33
2022-11-13T06:31:36.808Z,18.17
2022-11-13T06:34:05.452Z,19.93
2022-11-13T06:36:37.150Z,17.60
2022-11-13T06:39:09.516Z,16.90
2022-11-13T06:41:39.349Z,22.97
2022-11-13T06:44:06.450Z,20.07
2022-11-13T06:46:33.547Z,19.17
2022-11-13T06:49:00.665Z,19.80
2022-11-13T06:51:31.764Z,18.10
2022-11-13T06:53:58.850Z,23.10
2022-11-13T06:56:26.677Z,24.53
2022-11-13T06:58:56.014Z,23.13
2022-11-13T07:01:26.143Z,21.80
2022-11-13T07:03:53.969Z,21.07
2022-11-13T07:06:24.349Z,18.63
2022-11-13T07:08:51.867Z,19.93
2022-11-13T07:11:22.421Z,17.07
2022-11-13T07:13:50.509Z,16.83
2022-11-13T07:16:18.589Z,20.37
2022-11-13T07:18:53.530Z,17.23
2022-11-13T07:21:22.266Z,20.53
2022-11-13T07:23:50.821Z,20.33
2022-11-13T07:26:19.206Z,20.93
2022-11-13T07:28:47.730Z,19.40
2022-11-13T07:31:17.453Z,17.50
2022-11-13T07:33:44.541Z,20.07
2022-11-13T07:36:11.946Z,21.53
2022-11-13T07:38:38.971Z,19.33
2022-11-13T07:41:06.619Z,21.10
2022-11-13T07:43:35.427Z,21.00
2022-11-13T07:46:02.743Z,23.03
2022-11-13T07:48:30.524Z,20.00
2022-11-13T07:51:02.434Z,23.50
2022-11-13T07:53:30.525Z,24.33
2022-11-13T07:56:02.719Z,17.87
2022-11-13T07:58:31.039Z,19.83
2022-11-13T08:01:04.803Z,19.10
2022-11-13T08:03:32.769Z,16.23
2022-11-13T08:06:07.182Z,18.37
2022-11-13T08:08:35.215Z,14.03
2022-11-13T08:11:08.814Z,16.77
2022-11-13T08:13:36.988Z,17.77
2022-11-13T08:16:05.302Z,17.57
2022-11-13T08:18:32.846Z,15.33
2022-11-13T08:21:05.157Z,12.30
2022-11-13T08:23:33.430Z,11.77
2022-11-13T08:26:06.480Z,13.63
2022-11-13T08:28:35.625Z,15.17
2022-11-13T08:31:03.754Z,14.20
2022-11-13T08:33:32.461Z,12.60
2022-11-13T08:36:00.792Z,15.93
2022-11-13T08:38:28.178Z,13.73
2022-11-13T08:41:05.783Z,15.13
2022-11-13T08:43:34.450Z,11.63
2022-11-13T08:46:02.353Z,13.73
2022-11-13T08:48:29.732Z,12.80
2022-11-13T08:50:57.785Z,15.53
2022-11-13T08:53:25.909Z,12.43
2022-11-13T08:55:53.058Z,15.70
2022-11-13T08:58:20.079Z,15.40
2022-11-13T09:00:47.423Z,19.50
2022-11-13T09:03:14.830Z,20.30
2022-11-13T09:05:41.837Z,22.47
2022-11-13T09:08:16.229Z,22.80
2022-11-13T09:10:43.356Z,19.13
2022-11-13T09:13:11.866Z,24.23
2022-11-13T09:15:39.976Z,26.77
2022-11-13T09:18:07.285Z,24.60
2022-11-13T09:20:35.141Z,26.67
2022-11-13T09:23:07.097Z,26.13
2022-11-13T09:25:38.084Z,23.80
2022-11-13T09:28:07.199Z,25.87
2022-11-13T09:30:34.668Z,25.33
2022-11-13T09:33:01.983Z,21.67
2022-11-13T09:35:36.995Z,27.27
2022-11-13T09:38:11.280Z,27.67
2022-11-13T09:41:14.912Z,23.27
2022-11-13T09:44:00.320Z,27.40
2022-11-13T09:46:55.340Z,25.83
2022-11-13T09:49:38.362Z,26.10
2022-11-13T09:52:24.255Z,26.97
2022-11-13T09:54:51.616Z,22.43
2022-11-13T09:57:31.428Z,25.60
2022-11-13T10:00:27.077Z,24.47
2022-11-13T10:06:58.518Z,25.73
2022-11-13T10:10:30.432Z,24.07
2022-11-13T10:13:00.076Z,22.50
2022-11-13T10:15:28.101Z,22.70
2022-11-13T10:18:30.642Z,43.63
2022-11-13T10:21:17.910Z,21.57
2022-11-13T10:23:55.096Z,32.87
2022-11-13T10:26:29.380Z,28.13
2022-11-13T10:29:18.868Z,26.03
2022-11-13T10:31:51.031Z,32.20
2022-11-13T10:34:19.730Z,23.53
2022-11-13T10:37:38.862Z,22.20
2022-11-13T10:40:06.841Z,19.97
2022-11-13T10:42:41.284Z,19.90
2022-11-13T10:45:22.571Z,21.97
2022-11-13T10:48:04.102Z,20.60
2022-11-13T10:50:33.481Z,22.87
2022-11-13T10:53:00.567Z,18.70
2022-11-13T10:55:41.677Z,21.33
2022-11-13T10:58:18.900Z,35.17
2022-11-13T11:00:49.697Z,22.13
2022-11-13T11:03:23.565Z,23.37
2022-11-13T11:06:04.130Z,24.43
2022-11-13T11:08:36.054Z,22.23
2022-11-13T11:11:32.578Z,22.87
2022-11-13T11:14:28.316Z,22.13
2022-11-13T11:16:56.467Z,21.43
2022-11-13T11:19:30.909Z,19.80
2022-11-13T11:22:20.816Z,18.20
2022-11-13T11:25:03.974Z,23.10
2022-11-13T11:28:00.120Z,23.80
2022-11-13T11:30:39.995Z,19.47
2022-11-13T11:33:47.298Z,19.47
2022-11-13T11:36:46.699Z,21.50
2022-11-13T11:39:19.380Z,19.67
2022-11-13T11:42:33.545Z,22.13
2022-11-13T11:45:40.741Z,17.80
2022-11-13T11:48:24.238Z,19.17
2022-11-13T11:51:34.768Z,19.23
2022-11-13T11:54:54.193Z,20.97
2022-11-13T11:58:29.139Z,26.30
2022-11-13T12:01:40.986Z,21.23
2022-11-13T12:04:54.745Z,17.47
2022-11-13T12:07:58.582Z,22.63
2022-11-13T12:10:56.769Z,19.03
2022-11-13T12:13:33.724Z,17.30
2022-11-13T12:16:14.935Z,15.83
2022-11-13T12:19:10.960Z,20.67
2022-11-13T12:22:17.881Z,19.47
2022-11-13T12:25:11.635Z,20.07
2022-11-13T12:29:05.615Z,16.77
2022-11-13T12:32:18.912Z,18.47
2022-11-13T12:34:55.324Z,16.73
2022-11-13T12:38:29.236Z,17.77
2022-11-13T12:41:45.686Z,19.23
2022-11-13T12:44:27.601Z,16.23
2022-11-13T12:47:00.255Z,16.20
2022-11-13T12:49:35.751Z,17.00
2022-11-13T12:52:20.471Z,17.97
2022-11-13T12:54:47.807Z,19.60
2022-11-13T12:57:15.569Z,17.90
2022-11-13T13:00:00.579Z,14.00
2022-11-13T13:03:11.012Z,15.70
2022-11-13T13:06:22.900Z,15.50
2022-11-13T13:10:12.127Z,14.60
2022-11-13T13:13:23.982Z,19.67
2022-11-13T13:16:02.684Z,16.07
2022-11-13T13:18:38.345Z,15.20
2022-11-13T13:21:20.435Z,17.10
2022-11-13T13:24:00.687Z,15.57
2022-11-13T13:26:44.348Z,17.90
2022-11-13T13:29:30.663Z,17.50
2022-11-13T13:32:23.661Z,18.17
2022-11-13T13:35:24.319Z,16.57
2022-11-13T13:38:32.890Z,17.10
2022-11-13T13:41:58.508Z,16.30
2022-11-13T13:45:35.971Z,16.73
2022-11-13T13:48:08.837Z,21.17
2022-11-13T13:50:47.138Z,23.23
2022-11-13T13:53:26.589Z,21.77
2022-11-13T13:55:56.641Z,17.80
2022-11-13T13:58:35.763Z,20.83
2022-11-13T14:01:18.949Z,20.60
2022-11-13T14:03:47.143Z,16.77
2022-11-13T14:06:23.661Z,20.90
2022-11-13T14:08:50.880Z,27.90
2022-11-13T14:11:32.332Z,31.97
2022-11-13T14:14:26.024Z,31.77
2022-11-13T14:17:00.499Z,44.70
2022-11-13T14:19:28.215Z,39.73
2022-11-13T14:22:01.837Z,23.83
2022-11-13T14:24:43.641Z,25.77
2022-11-13T14:27:24.254Z,23.50
2022-11-13T14:29:59.927Z,29.93
2022-11-13T14:32:42.964Z,21.77
2022-11-13T14:35:24.369Z,21.43
2022-11-13T14:37:54.835Z,27.30
2022-11-13T14:40:32.350Z,23.10
2022-11-13T14:43:07.484Z,21.43
2022-11-13T14:45:34.786Z,22.37
2022-11-13T14:48:25.981Z,23.17
2022-11-13T14:51:06.895Z,20.67
2022-11-13T14:53:42.307Z,24.53
2022-11-13T14:56:12.077Z,21.13
2022-11-13T14:58:47.180Z,24.23
2022-11-13T15:01:22.418Z,22.87
2022-11-13T15:03:52.083Z,23.07
2022-11-13T15:06:36.999Z,24.00
2022-11-13T15:09:13.543Z,30.13
2022-11-13T15:11:40.806Z,24.90
2022-11-13T15:14:19.349Z,25.00
2022-11-13T15:16:48.742Z,23.50
2022-11-13T15:19:38.188Z,21.67
2022-11-13T15:22:26.447Z,24.43
2022-11-13T15:24:54.054Z,28.83
2022-11-13T15:27:21.041Z,28.97
2022-11-13T15:29:48.747Z,31.33
2022-11-13T15:32:16.276Z,25.53
2022-11-13T15:34:43.683Z,25.30
2022-11-13T15:37:16.781Z,31.67
2022-11-13T15:39:44.128Z,32.50
2022-11-13T15:42:27.474Z,27.67
2022-11-13T15:44:54.705Z,36.53
2022-11-13T15:47:28.832Z,30.73
2022-11-13T15:50:15.164Z,34.80
2022-11-13T15:52:50.537Z,34.37
2022-11-13T15:55:31.615Z,28.77
2022-11-13T15:57:59.165Z,33.27
2022-11-13T16:00:29.127Z,38.63
2022-11-13T16:02:57.652Z,41.73
2022-11-13T16:05:29.312Z,41.50
2022-11-13T16:07:57.607Z,45.03
2022-11-13T16:10:25.946Z,43.17
2022-11-13T16:12:53.625Z,35.90
2022-11-13T16:15:23.766Z,42.77
2022-11-13T16:17:55.568Z,43.67
2022-11-13T16:20:22.760Z,41.43
2022-11-13T16:22:50.669Z,43.73
2022-11-13T16:25:21.385Z,38.50
2022-11-13T16:27:48.947Z,43.77
2022-11-13T16:30:21.201Z,47.77
2022-11-13T16:32:48.946Z,41.77
2022-11-13T16:35:19.462Z,41.03
2022-11-13T16:37:46.665Z,41.03
2022-11-13T16:40:26.447Z,40.17
2022-11-13T16:42:54.169Z,43.83
2022-11-13T16:45:22.400Z,44.87
2022-11-13T16:47:50.766Z,45.93
2022-11-13T16:50:28.607Z,43.60
2022-11-13T16:52:56.558Z,50.93
2022-11-13T16:55:24.397Z,44.60
2022-11-13T17:01:01.559Z,43.40
2022-11-13T17:04:36.375Z,50.17
2022-11-13T17:06:43.971Z,50.87
2022-11-13T17:10:16.604Z,48.13
2022-11-13T17:13:40.949Z,43.17
2022-11-13T17:16:02.103Z,39.73
2022-11-13T17:18:34.352Z,41.93
2022-11-13T17:21:12.369Z,39.10
2022-11-13T17:24:11.735Z,46.00
2022-11-13T17:26:45.755Z,40.50
2022-11-13T17:29:19.252Z,44.33
2022-11-13T17:31:53.028Z,43.40
2022-11-13T17:34:20.071Z,45.03
2022-11-13T17:36:47.765Z,42.67
2022-11-13T17:39:15.417Z,41.07
2022-11-13T17:41:42.411Z,41.83
2022-11-13T17:44:12.233Z,38.47
2022-11-13T17:46:55.070Z,44.13
2022-11-13T17:49:22.587Z,38.90
2022-11-13T17:51:56.073Z,40.67
2022-11-13T17:54:25.172Z,40.93
2022-11-13T17:56:52.833Z,41.70
2022-11-13T17:59:22.987Z,38.77
2022-11-13T18:01:50.491Z,39.83
2022-11-13T18:04:17.501Z,36.67
2022-11-13T18:06:44.812Z,38.83
2022-11-13T18:09:12.554Z,37.40
2022-11-13T18:11:39.680Z,35.87
2022-11-13T18:14:06.956Z,41.40
2022-11-13T18:16:34.712Z,35.97
2022-11-13T18:19:06.964Z,36.90
2022-11-13T18:21:40.519Z,37.57
2022-11-13T18:24:19.327Z,35.87
2022-11-13T18:26:56.103Z,34.13
2022-11-13T18:29:38.489Z,33.57
2022-11-13T18:32:05.619Z,36.60
2022-11-13T18:34:32.688Z,33.30
2022-11-13T18:37:00.390Z,33.57
2022-11-13T18:39:27.910Z,37.43
2022-11-13T18:42:14.958Z,34.43
2022-11-13T18:44:45.306Z,31.07
2022-11-13T18:47:12.631Z,30.30
2022-11-13T18:49:40.119Z,29.80
2022-11-13T18:52:10.458Z,37.07
2022-11-13T18:54:38.066Z,33.10
2022-11-13T18:57:05.627Z,35.83
2022-11-13T18:59:33.197Z,33.70
2022-11-13T19:02:00.708Z,33.97
2022-11-13T19:04:27.951Z,34.47
2022-11-13T19:06:55.558Z,47.23
2022-11-13T19:09:22.979Z,31.10
2022-11-13T19:11:54.392Z,33.23
2022-11-13T19:14:21.787Z,31.87
2022-11-13T19:16:49.015Z,33.60
2022-11-13T19:19:21.401Z,33.67
2022-11-13T19:21:49.221Z,35.67
2022-11-13T19:24:17.309Z,35.13
2022-11-13T19:26:46.179Z,35.77
2022-11-13T19:29:27.325Z,36.73
2022-11-13T19:31:56.961Z,34.37
2022-11-13T19:34:26.084Z,37.93
2022-11-13T19:36:54.424Z,36.57
2022-11-13T19:39:29.214Z,35.60
2022-11-13T19:41:56.828Z,39.87
2022-11-13T19:44:27.769Z,35.40
2022-11-13T19:46:58.286Z,37.33
2022-11-13T19:49:43.899Z,40.13
2022-11-13T19:52:17.266Z,42.47
2022-11-13T19:54:45.050Z,37.77
2022-11-13T19:57:18.324Z,37.83
2022-11-13T19:59:45.765Z,37.43
2022-11-13T20:02:14.229Z,34.20
2022-11-13T20:04:47.390Z,34.10
2022-11-13T20:07:16.076Z,35.50
2022-11-13T20:09:43.557Z,37.57
2022-11-13T20:12:10.879Z,32.77
2022-11-13T20:14:38.696Z,34.43
2022-11-13T20:17:12.446Z,42.47
2022-11-13T20:19:39.729Z,33.77
2022-11-13T20:22:06.846Z,32.50
2022-11-13T20:24:37.197Z,39.83
2022-11-13T20:27:13.480Z,37.33
2022-11-13T20:29:43.629Z,36.47
2022-11-13T20:32:10.878Z,38.80
2022-11-13T20:34:47.571Z,34.27
2022-11-13T20:37:15.023Z,32.40
2022-11-13T20:39:42.434Z,33.37
2022-11-13T20:42:14.812Z,34.10
2022-11-13T20:44:41.815Z,36.37
2022-11-13T20:47:12.099Z,36.40
2022-11-13T20:49:39.756Z,36.70
2022-11-13T20:52:12.652Z,32.73
2022-11-13T20:54:42.945Z,40.83
2022-11-13T20:57:13.548Z,36.83
2022-11-13T20:59:43.181Z,38.93
2022-11-13T21:02:12.783Z,40.00
2022-11-13T21:07:31.653Z,38.90
2022-11-13T21:09:58.946Z,36.77
2022-11-13T21:12:26.683Z,38.33
2022-11-13T21:14:53.699Z,33.67
2022-11-13T21:17:20.671Z,40.63
2022-11-13T21:19:48.016Z,39.00
2022-11-13T21:25:33.615Z,41.40
2022-11-13T21:28:43.492Z,36.80
2022-11-13T21:31:34.437Z,44.00
2022-11-13T21:34:01.628Z,38.67
2022-11-13T21:36:33.305Z,40.50
2022-11-13T21:39:06.599Z,42.57
2022-11-13T21:41:39.685Z,37.53
2022-11-13T21:44:10.802Z,37.20
2022-11-13T21:46:45.599Z,41.33
2022-11-13T21:49:17.978Z,40.80
2022-11-13T21:51:47.725Z,44.27
2022-11-13T21:54:15.412Z,48.97
2022-11-13T21:56:51.910Z,44.97
2022-11-13T21:59:19.071Z,46.27
2022-11-13T22:01:58.887Z,44.27
2022-11-13T22:04:26.085Z,42.87
2022-11-13T22:06:54.597Z,49.97
2022-11-13T22:09:40.998Z,46.60
2022-11-13T22:12:12.230Z,49.57
2022-11-13T22:14:44.265Z,53.23
2022-11-13T22:17:25.303Z,54.20
2022-11-13T22:20:05.216Z,50.57
2022-11-13T22:22:52.522Z,52.67
2022-11-13T22:25:34.624Z,53.80
2022-11-13T22:28:01.740Z,50.70
2022-11-13T22:30:48.978Z,50.97
2022-11-13T22:33:52.475Z,57.60
2022-11-13T22:36:34.192Z,51.83
2022-11-13T22:39:08.056Z,56.00
2022-11-13T22:41:36.722Z,64.73
2022-11-13T22:44:28.563Z,54.43
2022-11-13T22:47:02.167Z,58.83
2022-11-13T22:49:33.080Z,61.50
2022-11-13T22:52:21.847Z,65.07
2022-11-13T22:54:54.144Z,59.13
2022-11-13T22:57:36.977Z,63.57
2022-11-13T23:00:21.282Z,60.33
2022-11-13T23:02:48.435Z,68.57
2022-11-13T23:05:18.878Z,61.10
2022-11-13T23:07:55.113Z,70.27
2022-11-13T23:10:25.330Z,65.93
2022-11-13T23:12:56.088Z,63.10
2022-11-13T23:15:36.262Z,77.83
2022-11-13T23:18:05.874Z,75.20
2022-11-13T23:20:56.050Z,75.20
2022-11-13T23:23:23.157Z,70.03
2022-11-13T23:25:53.306Z,61.67
2022-11-13T23:28:30.203Z,65.33
2022-11-13T23:30:57.744Z,64.47
2022-11-13T23:36:18.118Z,74.50
2022-11-13T23:38:48.401Z,71.03
2022-11-13T23:41:15.729Z,73.30
2022-11-13T23:46:30.114Z,68.63
2022-11-13T23:49:00.637Z,72.70
2022-11-13T23:51:33.701Z,74.23
2022-11-13T23:54:06.321Z,69.67
2022-11-13T23:56:42.728Z,69.50
2022-11-13T23:59:13.835Z,77.40
